sensor_id;sensor_type;location;lat;lon;timestamp;P1;durP1;ratioP1;P2;durP2;ratioP2
6547;SDS011;3307;52.416;16.862;2023-02-01T00:02:11;9.83;;;2.83;;
6547;SDS011;3307;52.416;16.862;2023-02-01T00:04:36;6.33;;;2.70;;
6547;SDS011;3307;52.416;16.862;2023-02-01T00:07:01;5.47;;;1.80;;
6547;SDS011;3307;52.416;16.862;2023-02-01T00:09:27;6.20;;;2.50;;
6547;SDS011;3307;52.416;16.862;2023-02-01T00:11:52;9.63;;;3.50;;
6547;SDS011;3307;52.416;16.862;2023-02-01T00:14:18;13.40;;;2.10;;
6547;SDS011;3307;52.416;16.862;2023-02-01T00:16:43;12.20;;;3.70;;
6547;SDS011;3307;52.416;16.862;2023-02-01T00:19:13;14.90;;;4.47;;
6547;SDS011;3307;52.416;16.862;2023-02-01T00:21:39;10.63;;;3.72;;
6547;SDS011;3307;52.416;16.862;2023-02-01T00:24:05;9.43;;;2.80;;
6547;SDS011;3307;52.416;16.862;2023-02-01T00:26:34;14.55;;;2.92;;
6547;SDS011;3307;52.416;16.862;2023-02-01T00:29:02;7.55;;;3.25;;
6547;SDS011;3307;52.416;16.862;2023-02-01T00:31:29;10.75;;;3.00;;
6547;SDS011;3307;52.416;16.862;2023-02-01T00:33:54;5.17;;;1.90;;
6547;SDS011;3307;52.416;16.862;2023-02-01T00:36:20;7.33;;;3.03;;
6547;SDS011;3307;52.416;16.862;2023-02-01T00:38:45;13.30;;;2.47;;
6547;SDS011;3307;52.416;16.862;2023-02-01T00:41:15;9.03;;;4.47;;
6547;SDS011;3307;52.416;16.862;2023-02-01T00:43:42;6.88;;;2.90;;
6547;SDS011;3307;52.416;16.862;2023-02-01T00:46:08;10.67;;;4.30;;
6547;SDS011;3307;52.416;16.862;2023-02-01T00:48:34;10.27;;;2.87;;
6547;SDS011;3307;52.416;16.862;2023-02-01T00:51:05;6.97;;;1.63;;
6547;SDS011;3307;52.416;16.862;2023-02-01T00:53:32;15.00;;;4.50;;
6547;SDS011;3307;52.416;16.862;2023-02-01T00:55:58;6.93;;;1.90;;
6547;SDS011;3307;52.416;16.862;2023-02-01T00:58:24;8.27;;;3.20;;
6547;SDS011;3307;52.416;16.862;2023-02-01T01:01:14;8.15;;;2.08;;
6547;SDS011;3307;52.416;16.862;2023-02-01T01:03:41;4.72;;;1.45;;
6547;SDS011;3307;52.416;16.862;2023-02-01T01:06:09;6.07;;;2.47;;
6547;SDS011;3307;52.416;16.862;2023-02-01T01:08:36;6.75;;;3.30;;
6547;SDS011;3307;52.416;16.862;2023-02-01T01:11:09;18.65;;;2.65;;
6547;SDS011;3307;52.416;16.862;2023-02-01T01:13:36;8.50;;;3.03;;
6547;SDS011;3307;52.416;16.862;2023-02-01T01:16:02;6.20;;;3.13;;
6547;SDS011;3307;52.416;16.862;2023-02-01T01:18:30;8.30;;;2.90;;
6547;SDS011;3307;52.416;16.862;2023-02-01T01:20:56;7.22;;;3.08;;
6547;SDS011;3307;52.416;16.862;2023-02-01T01:23:21;5.73;;;2.83;;
6547;SDS011;3307;52.416;16.862;2023-02-01T01:25:47;10.27;;;2.53;;
6547;SDS011;3307;52.416;16.862;2023-02-01T01:28:12;7.50;;;1.80;;
6547;SDS011;3307;52.416;16.862;2023-02-01T01:30:38;4.83;;;2.17;;
6547;SDS011;3307;52.416;16.862;2023-02-01T01:33:03;11.37;;;3.30;;
6547;SDS011;3307;52.416;16.862;2023-02-01T01:35:30;13.63;;;4.37;;
6547;SDS011;3307;52.416;16.862;2023-02-01T01:37:57;7.22;;;3.20;;
6547;SDS011;3307;52.416;16.862;2023-02-01T01:40:23;6.35;;;2.38;;
6547;SDS011;3307;52.416;16.862;2023-02-01T01:42:49;5.93;;;2.90;;
6547;SDS011;3307;52.416;16.862;2023-02-01T01:45:25;5.90;;;2.33;;
6547;SDS011;3307;52.416;16.862;2023-02-01T01:48:07;6.97;;;2.58;;
6547;SDS011;3307;52.416;16.862;2023-02-01T01:50:41;5.47;;;2.20;;
6547;SDS011;3307;52.416;16.862;2023-02-01T01:53:09;9.95;;;3.10;;
6547;SDS011;3307;52.416;16.862;2023-02-01T01:55:37;6.70;;;2.58;;
6547;SDS011;3307;52.416;16.862;2023-02-01T01:58:07;7.47;;;2.28;;
6547;SDS011;3307;52.416;16.862;2023-02-01T02:00:33;11.85;;;4.20;;
6547;SDS011;3307;52.416;16.862;2023-02-01T02:03:08;11.50;;;2.77;;
6547;SDS011;3307;52.416;16.862;2023-02-01T02:05:39;7.93;;;2.03;;
6547;SDS011;3307;52.416;16.862;2023-02-01T02:08:04;10.27;;;3.40;;
6547;SDS011;3307;52.416;16.862;2023-02-01T02:10:29;3.10;;;1.57;;
6547;SDS011;3307;52.416;16.862;2023-02-01T02:13:14;8.25;;;2.38;;
6547;SDS011;3307;52.416;16.862;2023-02-01T02:15:43;14.70;;;2.83;;
6547;SDS011;3307;52.416;16.862;2023-02-01T02:18:19;11.25;;;2.80;;
6547;SDS011;3307;52.416;16.862;2023-02-01T02:24:25;7.75;;;2.47;;
6547;SDS011;3307;52.416;16.862;2023-02-01T02:31:34;10.20;;;3.33;;
6547;SDS011;3307;52.416;16.862;2023-02-01T02:41:42;7.75;;;2.45;;
6547;SDS011;3307;52.416;16.862;2023-02-01T02:48:07;10.52;;;2.58;;
6547;SDS011;3307;52.416;16.862;2023-02-01T02:50:38;5.47;;;3.17;;
6547;SDS011;3307;52.416;16.862;2023-02-01T02:53:32;6.22;;;3.00;;
6547;SDS011;3307;52.416;16.862;2023-02-01T02:56:20;12.65;;;2.97;;
6547;SDS011;3307;52.416;16.862;2023-02-01T02:59:06;6.53;;;1.50;;
6547;SDS011;3307;52.416;16.862;2023-02-01T03:01:51;10.35;;;2.47;;
6547;SDS011;3307;52.416;16.862;2023-02-01T03:04:35;9.73;;;4.13;;
6547;SDS011;3307;52.416;16.862;2023-02-01T03:07:14;8.47;;;3.10;;
6547;SDS011;3307;52.416;16.862;2023-02-01T03:09:59;4.70;;;2.03;;
6547;SDS011;3307;52.416;16.862;2023-02-01T03:12:29;8.55;;;2.55;;
6547;SDS011;3307;52.416;16.862;2023-02-01T03:15:16;10.35;;;3.80;;
6547;SDS011;3307;52.416;16.862;2023-02-01T03:17:42;4.97;;;1.77;;
6547;SDS011;3307;52.416;16.862;2023-02-01T03:20:09;9.70;;;3.45;;
6547;SDS011;3307;52.416;16.862;2023-02-01T03:22:38;4.75;;;2.42;;
6547;SDS011;3307;52.416;16.862;2023-02-01T03:25:06;7.25;;;2.30;;
6547;SDS011;3307;52.416;16.862;2023-02-01T03:27:40;4.97;;;2.03;;
6547;SDS011;3307;52.416;16.862;2023-02-01T03:30:13;10.80;;;3.55;;
6547;SDS011;3307;52.416;16.862;2023-02-01T03:33:14;17.75;;;3.35;;
6547;SDS011;3307;52.416;16.862;2023-02-01T03:38:14;11.13;;;3.87;;
6547;SDS011;3307;52.416;16.862;2023-02-01T03:40:45;6.50;;;1.98;;
6547;SDS011;3307;52.416;16.862;2023-02-01T03:43:14;6.90;;;2.90;;
6547;SDS011;3307;52.416;16.862;2023-02-01T03:45:43;7.53;;;3.08;;
6547;SDS011;3307;52.416;16.862;2023-02-01T03:48:09;9.88;;;3.58;;
6547;SDS011;3307;52.416;16.862;2023-02-01T03:50:36;8.05;;;3.10;;
6547;SDS011;3307;52.416;16.862;2023-02-01T03:53:09;13.38;;;3.17;;
6547;SDS011;3307;52.416;16.862;2023-02-01T03:55:37;5.97;;;2.75;;
6547;SDS011;3307;52.416;16.862;2023-02-01T03:58:07;11.18;;;3.58;;
6547;SDS011;3307;52.416;16.862;2023-02-01T04:00:50;7.85;;;4.05;;
6547;SDS011;3307;52.416;16.862;2023-02-01T04:03:20;7.80;;;2.50;;
6547;SDS011;3307;52.416;16.862;2023-02-01T04:05:47;9.30;;;2.88;;
6547;SDS011;3307;52.416;16.862;2023-02-01T04:08:13;7.30;;;2.97;;
6547;SDS011;3307;52.416;16.862;2023-02-01T04:10:39;5.67;;;2.77;;
6547;SDS011;3307;52.416;16.862;2023-02-01T04:13:05;10.00;;;2.40;;
6547;SDS011;3307;52.416;16.862;2023-02-01T04:15:30;8.02;;;2.95;;
6547;SDS011;3307;52.416;16.862;2023-02-01T04:17:56;4.63;;;2.10;;
6547;SDS011;3307;52.416;16.862;2023-02-01T04:20:21;12.43;;;3.60;;
6547;SDS011;3307;52.416;16.862;2023-02-01T04:22:46;4.60;;;1.70;;
6547;SDS011;3307;52.416;16.862;2023-02-01T04:25:12;7.80;;;2.30;;
6547;SDS011;3307;52.416;16.862;2023-02-01T04:27:37;11.53;;;2.93;;
6547;SDS011;3307;52.416;16.862;2023-02-01T04:30:03;6.33;;;1.70;;
6547;SDS011;3307;52.416;16.862;2023-02-01T04:32:29;4.18;;;2.50;;
6547;SDS011;3307;52.416;16.862;2023-02-01T04:34:54;7.70;;;3.00;;
6547;SDS011;3307;52.416;16.862;2023-02-01T04:37:20;6.20;;;2.57;;
6547;SDS011;3307;52.416;16.862;2023-02-01T04:39:45;5.60;;;2.83;;
6547;SDS011;3307;52.416;16.862;2023-02-01T04:42:11;6.30;;;2.23;;
6547;SDS011;3307;52.416;16.862;2023-02-01T04:44:36;8.10;;;2.43;;
6547;SDS011;3307;52.416;16.862;2023-02-01T04:47:04;11.55;;;2.03;;
6547;SDS011;3307;52.416;16.862;2023-02-01T04:49:30;6.47;;;2.92;;
6547;SDS011;3307;52.416;16.862;2023-02-01T04:51:55;7.20;;;1.73;;
6547;SDS011;3307;52.416;16.862;2023-02-01T04:54:21;3.57;;;1.90;;
6547;SDS011;3307;52.416;16.862;2023-02-01T04:56:46;7.93;;;3.43;;
6547;SDS011;3307;52.416;16.862;2023-02-01T04:59:12;8.00;;;2.87;;
6547;SDS011;3307;52.416;16.862;2023-02-01T05:01:37;5.73;;;3.70;;
6547;SDS011;3307;52.416;16.862;2023-02-01T05:04:03;10.00;;;2.97;;
6547;SDS011;3307;52.416;16.862;2023-02-01T05:06:29;5.80;;;1.90;;
6547;SDS011;3307;52.416;16.862;2023-02-01T05:08:55;9.17;;;2.83;;
6547;SDS011;3307;52.416;16.862;2023-02-01T05:11:20;10.20;;;4.43;;
6547;SDS011;3307;52.416;16.862;2023-02-01T05:14:04;4.32;;;1.73;;
6547;SDS011;3307;52.416;16.862;2023-02-01T05:16:29;7.27;;;2.67;;
6547;SDS011;3307;52.416;16.862;2023-02-01T05:18:55;13.97;;;3.60;;
6547;SDS011;3307;52.416;16.862;2023-02-01T05:21:20;4.80;;;2.30;;
6547;SDS011;3307;52.416;16.862;2023-02-01T05:23:46;10.90;;;3.37;;
6547;SDS011;3307;52.416;16.862;2023-02-01T05:26:30;4.63;;;2.30;;
6547;SDS011;3307;52.416;16.862;2023-02-01T05:28:55;7.30;;;3.10;;
6547;SDS011;3307;52.416;16.862;2023-02-01T05:31:21;11.53;;;3.67;;
6547;SDS011;3307;52.416;16.862;2023-02-01T05:33:47;8.85;;;2.90;;
6547;SDS011;3307;52.416;16.862;2023-02-01T05:36:12;17.13;;;3.27;;
6547;SDS011;3307;52.416;16.862;2023-02-01T05:38:38;12.47;;;3.97;;
6547;SDS011;3307;52.416;16.862;2023-02-01T05:41:03;6.87;;;2.80;;
6547;SDS011;3307;52.416;16.862;2023-02-01T05:43:29;6.13;;;3.90;;
6547;SDS011;3307;52.416;16.862;2023-02-01T05:45:54;12.30;;;3.60;;
6547;SDS011;3307;52.416;16.862;2023-02-01T05:48:20;12.37;;;3.17;;
6547;SDS011;3307;52.416;16.862;2023-02-01T05:50:45;10.27;;;4.63;;
6547;SDS011;3307;52.416;16.862;2023-02-01T05:53:11;7.07;;;2.77;;
6547;SDS011;3307;52.416;16.862;2023-02-01T05:55:37;6.75;;;2.80;;
6547;SDS011;3307;52.416;16.862;2023-02-01T05:58:03;14.27;;;2.63;;
6547;SDS011;3307;52.416;16.862;2023-02-01T06:00:29;9.40;;;3.22;;
6547;SDS011;3307;52.416;16.862;2023-02-01T06:02:54;4.07;;;2.50;;
6547;SDS011;3307;52.416;16.862;2023-02-01T06:05:20;9.17;;;2.60;;
6547;SDS011;3307;52.416;16.862;2023-02-01T06:07:45;9.80;;;3.83;;
6547;SDS011;3307;52.416;16.862;2023-02-01T06:10:11;8.15;;;2.90;;
6547;SDS011;3307;52.416;16.862;2023-02-01T06:12:37;14.67;;;3.30;;
6547;SDS011;3307;52.416;16.862;2023-02-01T06:15:02;7.07;;;3.70;;
6547;SDS011;3307;52.416;16.862;2023-02-01T06:17:28;12.87;;;3.30;;
6547;SDS011;3307;52.416;16.862;2023-02-01T06:19:53;10.83;;;3.93;;
6547;SDS011;3307;52.416;16.862;2023-02-01T06:22:18;6.47;;;3.83;;
6547;SDS011;3307;52.416;16.862;2023-02-01T06:24:44;13.60;;;4.63;;
6547;SDS011;3307;52.416;16.862;2023-02-01T06:27:09;9.10;;;3.40;;
6547;SDS011;3307;52.416;16.862;2023-02-01T06:29:35;9.10;;;3.30;;
6547;SDS011;3307;52.416;16.862;2023-02-01T06:32:01;14.57;;;4.40;;
6547;SDS011;3307;52.416;16.862;2023-02-01T06:34:28;12.10;;;3.78;;
6547;SDS011;3307;52.416;16.862;2023-02-01T06:36:53;12.40;;;5.53;;
6547;SDS011;3307;52.416;16.862;2023-02-01T06:39:19;12.05;;;5.40;;
6547;SDS011;3307;52.416;16.862;2023-02-01T06:41:46;10.43;;;5.17;;
6547;SDS011;3307;52.416;16.862;2023-02-01T06:44:12;14.88;;;5.32;;
6547;SDS011;3307;52.416;16.862;2023-02-01T06:46:37;15.07;;;6.03;;
6547;SDS011;3307;52.416;16.862;2023-02-01T06:49:03;17.73;;;5.83;;
6547;SDS011;3307;52.416;16.862;2023-02-01T06:51:28;6.40;;;2.57;;
6547;SDS011;3307;52.416;16.862;2023-02-01T06:53:54;11.60;;;4.07;;
6547;SDS011;3307;52.416;16.862;2023-02-01T06:56:20;8.68;;;2.97;;
6547;SDS011;3307;52.416;16.862;2023-02-01T06:58:46;10.07;;;4.50;;
6547;SDS011;3307;52.416;16.862;2023-02-01T07:01:11;13.33;;;4.37;;
6547;SDS011;3307;52.416;16.862;2023-02-01T07:03:37;9.15;;;4.13;;
6547;SDS011;3307;52.416;16.862;2023-02-01T07:06:03;9.77;;;4.13;;
6547;SDS011;3307;52.416;16.862;2023-02-01T07:08:30;8.43;;;3.03;;
6547;SDS011;3307;52.416;16.862;2023-02-01T07:11:00;12.30;;;4.90;;
6547;SDS011;3307;52.416;16.862;2023-02-01T07:13:27;10.93;;;5.10;;
6547;SDS011;3307;52.416;16.862;2023-02-01T07:15:52;20.30;;;5.43;;
6547;SDS011;3307;52.416;16.862;2023-02-01T07:18:17;10.30;;;4.17;;
6547;SDS011;3307;52.416;16.862;2023-02-01T07:20:43;16.97;;;7.97;;
6547;SDS011;3307;52.416;16.862;2023-02-01T07:23:15;8.82;;;4.05;;
6547;SDS011;3307;52.416;16.862;2023-02-01T07:25:40;16.23;;;5.10;;
6547;SDS011;3307;52.416;16.862;2023-02-01T07:28:06;14.68;;;4.95;;
6547;SDS011;3307;52.416;16.862;2023-02-01T07:30:32;12.43;;;4.80;;
6547;SDS011;3307;52.416;16.862;2023-02-01T07:32:57;15.03;;;5.47;;
6547;SDS011;3307;52.416;16.862;2023-02-01T07:35:26;11.30;;;4.70;;
6547;SDS011;3307;52.416;16.862;2023-02-01T07:37:54;14.20;;;4.97;;
6547;SDS011;3307;52.416;16.862;2023-02-01T07:40:23;9.60;;;4.18;;
6547;SDS011;3307;52.416;16.862;2023-02-01T07:42:54;13.00;;;5.90;;
6547;SDS011;3307;52.416;16.862;2023-02-01T07:45:20;12.40;;;5.80;;
6547;SDS011;3307;52.416;16.862;2023-02-01T07:47:46;18.83;;;5.90;;
6547;SDS011;3307;52.416;16.862;2023-02-01T07:50:11;14.60;;;6.10;;
6547;SDS011;3307;52.416;16.862;2023-02-01T07:52:37;13.30;;;5.53;;
6547;SDS011;3307;52.416;16.862;2023-02-01T07:55:02;12.60;;;5.20;;
6547;SDS011;3307;52.416;16.862;2023-02-01T07:57:28;15.20;;;5.43;;
6547;SDS011;3307;52.416;16.862;2023-02-01T07:59:53;19.60;;;6.17;;
6547;SDS011;3307;52.416;16.862;2023-02-01T08:02:37;11.60;;;5.38;;
6547;SDS011;3307;52.416;16.862;2023-02-01T08:05:03;9.70;;;4.73;;
6547;SDS011;3307;52.416;16.862;2023-02-01T08:07:30;10.93;;;5.45;;
6547;SDS011;3307;52.416;16.862;2023-02-01T08:09:55;10.53;;;3.03;;
6547;SDS011;3307;52.416;16.862;2023-02-01T08:12:20;8.93;;;3.47;;
6547;SDS011;3307;52.416;16.862;2023-02-01T08:14:46;16.20;;;5.50;;
6547;SDS011;3307;52.416;16.862;2023-02-01T08:17:11;13.80;;;5.20;;
6547;SDS011;3307;52.416;16.862;2023-02-01T08:19:36;26.33;;;5.87;;
6547;SDS011;3307;52.416;16.862;2023-02-01T08:22:02;10.87;;;5.70;;
6547;SDS011;3307;52.416;16.862;2023-02-01T08:24:31;13.93;;;4.53;;
6547;SDS011;3307;52.416;16.862;2023-02-01T08:27:00;13.60;;;5.10;;
6547;SDS011;3307;52.416;16.862;2023-02-01T08:29:27;13.55;;;6.03;;
6547;SDS011;3307;52.416;16.862;2023-02-01T08:31:52;12.57;;;4.90;;
6547;SDS011;3307;52.416;16.862;2023-02-01T08:34:19;13.82;;;4.82;;
6547;SDS011;3307;52.416;16.862;2023-02-01T08:36:44;13.20;;;5.30;;
6547;SDS011;3307;52.416;16.862;2023-02-01T08:39:10;13.93;;;4.00;;
6547;SDS011;3307;52.416;16.862;2023-02-01T08:41:36;12.43;;;5.97;;
6547;SDS011;3307;52.416;16.862;2023-02-01T08:44:01;15.67;;;4.87;;
6547;SDS011;3307;52.416;16.862;2023-02-01T08:46:27;13.30;;;6.00;;
6547;SDS011;3307;52.416;16.862;2023-02-01T08:48:53;10.03;;;5.23;;
6547;SDS011;3307;52.416;16.862;2023-02-01T08:51:19;10.10;;;4.73;;
6547;SDS011;3307;52.416;16.862;2023-02-01T08:53:46;15.77;;;5.30;;
6547;SDS011;3307;52.416;16.862;2023-02-01T08:56:13;10.88;;;4.43;;
6547;SDS011;3307;52.416;16.862;2023-02-01T08:58:39;12.88;;;5.15;;
6547;SDS011;3307;52.416;16.862;2023-02-01T09:01:05;13.57;;;6.70;;
6547;SDS011;3307;52.416;16.862;2023-02-01T09:03:35;9.18;;;4.65;;
6547;SDS011;3307;52.416;16.862;2023-02-01T09:06:01;12.13;;;4.30;;
6547;SDS011;3307;52.416;16.862;2023-02-01T09:08:28;11.10;;;4.22;;
6547;SDS011;3307;52.416;16.862;2023-02-01T09:10:57;13.00;;;5.43;;
6547;SDS011;3307;52.416;16.862;2023-02-01T09:13:27;8.65;;;4.30;;
6547;SDS011;3307;52.416;16.862;2023-02-01T09:15:52;7.73;;;4.33;;
6547;SDS011;3307;52.416;16.862;2023-02-01T09:18:18;7.67;;;4.37;;
6547;SDS011;3307;52.416;16.862;2023-02-01T09:20:43;14.90;;;5.70;;
6547;SDS011;3307;52.416;16.862;2023-02-01T09:23:09;8.90;;;4.07;;
6547;SDS011;3307;52.416;16.862;2023-02-01T09:25:36;8.87;;;4.63;;
6547;SDS011;3307;52.416;16.862;2023-02-01T09:28:03;9.68;;;4.80;;
6547;SDS011;3307;52.416;16.862;2023-02-01T09:30:30;10.35;;;5.38;;
6547;SDS011;3307;52.416;16.862;2023-02-01T09:32:57;11.95;;;8.20;;
6547;SDS011;3307;52.416;16.862;2023-02-01T09:35:22;10.47;;;5.93;;
6547;SDS011;3307;52.416;16.862;2023-02-01T09:37:47;17.00;;;8.07;;
6547;SDS011;3307;52.416;16.862;2023-02-01T09:40:16;7.10;;;5.10;;
6547;SDS011;3307;52.416;16.862;2023-02-01T09:48:14;7.50;;;4.97;;
6547;SDS011;3307;52.416;16.862;2023-02-01T09:50:43;6.07;;;5.20;;
6547;SDS011;3307;52.416;16.862;2023-02-01T09:53:13;12.40;;;5.50;;
6547;SDS011;3307;52.416;16.862;2023-02-01T09:55:47;11.88;;;6.25;;
6547;SDS011;3307;52.416;16.862;2023-02-01T09:58:16;9.73;;;5.50;;
6547;SDS011;3307;52.416;16.862;2023-02-01T10:00:51;7.72;;;4.43;;
6547;SDS011;3307;52.416;16.862;2023-02-01T10:03:18;14.00;;;5.78;;
6547;SDS011;3307;52.416;16.862;2023-02-01T10:11:32;12.32;;;7.47;;
6547;SDS011;3307;52.416;16.862;2023-02-01T10:22:58;14.75;;;7.65;;
6547;SDS011;3307;52.416;16.862;2023-02-01T10:28:18;18.42;;;7.65;;
6547;SDS011;3307;52.416;16.862;2023-02-01T10:30:46;11.02;;;7.65;;
6547;SDS011;3307;52.416;16.862;2023-02-01T10:33:14;15.95;;;7.55;;
6547;SDS011;3307;52.416;16.862;2023-02-01T10:35:45;13.38;;;7.80;;
6547;SDS011;3307;52.416;16.862;2023-02-01T10:38:16;13.43;;;7.47;;
6547;SDS011;3307;52.416;16.862;2023-02-01T10:40:50;16.85;;;7.45;;
6547;SDS011;3307;52.416;16.862;2023-02-01T10:43:17;10.18;;;7.13;;
6547;SDS011;3307;52.416;16.862;2023-02-01T10:45:42;14.73;;;8.23;;
6547;SDS011;3307;52.416;16.862;2023-02-01T10:48:08;12.10;;;6.70;;
6547;SDS011;3307;52.416;16.862;2023-02-01T10:53:13;10.45;;;7.07;;
6547;SDS011;3307;52.416;16.862;2023-02-01T10:55:49;11.05;;;4.95;;
6547;SDS011;3307;52.416;16.862;2023-02-01T11:03:32;9.20;;;5.70;;
6547;SDS011;3307;52.416;16.862;2023-02-01T11:05:59;11.05;;;6.43;;
6547;SDS011;3307;52.416;16.862;2023-02-01T11:08:26;8.43;;;4.47;;
6547;SDS011;3307;52.416;16.862;2023-02-01T11:11:02;8.13;;;4.90;;
6547;SDS011;3307;52.416;16.862;2023-02-01T11:13:31;6.63;;;4.03;;
6547;SDS011;3307;52.416;16.862;2023-02-01T11:16:00;8.60;;;4.97;;
6547;SDS011;3307;52.416;16.862;2023-02-01T11:18:28;7.88;;;5.60;;
6547;SDS011;3307;52.416;16.862;2023-02-01T11:20:55;13.48;;;7.88;;
6547;SDS011;3307;52.416;16.862;2023-02-01T11:23:30;10.90;;;7.27;;
6547;SDS011;3307;52.416;16.862;2023-02-01T11:26:09;10.23;;;7.75;;
6547;SDS011;3307;52.416;16.862;2023-02-01T11:28:41;8.40;;;6.15;;
6547;SDS011;3307;52.416;16.862;2023-02-01T11:31:12;10.43;;;5.28;;
6547;SDS011;3307;52.416;16.862;2023-02-01T11:33:39;13.50;;;6.80;;
6547;SDS011;3307;52.416;16.862;2023-02-01T11:36:21;7.28;;;6.43;;
6547;SDS011;3307;52.416;16.862;2023-02-01T11:39:36;8.07;;;4.90;;
6547;SDS011;3307;52.416;16.862;2023-02-01T11:44:26;6.28;;;4.38;;
6547;SDS011;3307;52.416;16.862;2023-02-01T11:46:55;11.38;;;6.53;;
6547;SDS011;3307;52.416;16.862;2023-02-01T11:49:54;13.35;;;6.43;;
6547;SDS011;3307;52.416;16.862;2023-02-01T11:55:00;8.20;;;4.88;;
6547;SDS011;3307;52.416;16.862;2023-02-01T12:14:48;9.55;;;4.88;;
6547;SDS011;3307;52.416;16.862;2023-02-01T12:23:06;8.52;;;4.32;;
6547;SDS011;3307;52.416;16.862;2023-02-01T12:36:14;5.25;;;3.45;;
6547;SDS011;3307;52.416;16.862;2023-02-01T12:38:55;6.32;;;4.25;;
6547;SDS011;3307;52.416;16.862;2023-02-01T12:47:26;6.43;;;4.05;;
6547;SDS011;3307;52.416;16.862;2023-02-01T12:50:03;9.77;;;5.13;;
6547;SDS011;3307;52.416;16.862;2023-02-01T12:52:38;6.05;;;4.10;;
6547;SDS011;3307;52.416;16.862;2023-02-01T12:55:23;7.00;;;5.07;;
6547;SDS011;3307;52.416;16.862;2023-02-01T12:58:02;4.63;;;3.17;;
6547;SDS011;3307;52.416;16.862;2023-02-01T13:00:34;8.75;;;4.43;;
6547;SDS011;3307;52.416;16.862;2023-02-01T13:05:52;5.32;;;3.50;;
6547;SDS011;3307;52.416;16.862;2023-02-01T13:08:22;6.68;;;4.55;;
6547;SDS011;3307;52.416;16.862;2023-02-01T13:16:27;4.35;;;3.20;;
6547;SDS011;3307;52.416;16.862;2023-02-01T13:18:59;5.88;;;4.03;;
6547;SDS011;3307;52.416;16.862;2023-02-01T13:21:31;7.07;;;3.85;;
6547;SDS011;3307;52.416;16.862;2023-02-01T13:23:59;5.55;;;3.90;;
6547;SDS011;3307;52.416;16.862;2023-02-01T13:26:24;7.53;;;4.30;;
6547;SDS011;3307;52.416;16.862;2023-02-01T13:28:51;8.53;;;3.80;;
6547;SDS011;3307;52.416;16.862;2023-02-01T13:39:54;5.35;;;3.47;;
6547;SDS011;3307;52.416;16.862;2023-02-01T13:42:42;14.13;;;4.45;;
6547;SDS011;3307;52.416;16.862;2023-02-01T13:45:34;3.75;;;2.70;;
6547;SDS011;3307;52.416;16.862;2023-02-01T13:48:00;4.97;;;2.95;;
6547;SDS011;3307;52.416;16.862;2023-02-01T13:55:46;11.10;;;4.72;;
6547;SDS011;3307;52.416;16.862;2023-02-01T14:11:57;10.30;;;3.97;;
6547;SDS011;3307;52.416;16.862;2023-02-01T14:19:30;6.72;;;2.90;;
6547;SDS011;3307;52.416;16.862;2023-02-01T14:21:57;9.07;;;4.65;;
6547;SDS011;3307;52.416;16.862;2023-02-01T14:24:43;13.95;;;5.10;;
6547;SDS011;3307;52.416;16.862;2023-02-01T14:27:18;17.95;;;9.23;;
6547;SDS011;3307;52.416;16.862;2023-02-01T14:29:50;15.77;;;6.75;;
6547;SDS011;3307;52.416;16.862;2023-02-01T14:32:23;23.30;;;10.52;;
6547;SDS011;3307;52.416;16.862;2023-02-01T14:34:51;14.35;;;7.38;;
6547;SDS011;3307;52.416;16.862;2023-02-01T14:44:43;10.15;;;4.55;;
6547;SDS011;3307;52.416;16.862;2023-02-01T14:52:22;14.35;;;6.10;;
6547;SDS011;3307;52.416;16.862;2023-02-01T14:54:56;10.00;;;6.15;;
6547;SDS011;3307;52.416;16.862;2023-02-01T14:57:26;8.82;;;5.20;;
6547;SDS011;3307;52.416;16.862;2023-02-01T14:59:54;13.40;;;4.78;;
6547;SDS011;3307;52.416;16.862;2023-02-01T15:02:38;9.85;;;5.30;;
6547;SDS011;3307;52.416;16.862;2023-02-01T15:05:12;16.27;;;5.50;;
6547;SDS011;3307;52.416;16.862;2023-02-01T15:07:51;15.63;;;7.97;;
6547;SDS011;3307;52.416;16.862;2023-02-01T15:10:17;15.43;;;6.68;;
6547;SDS011;3307;52.416;16.862;2023-02-01T15:12:45;14.48;;;7.28;;
6547;SDS011;3307;52.416;16.862;2023-02-01T15:17:50;9.48;;;4.18;;
6547;SDS011;3307;52.416;16.862;2023-02-01T15:20:17;8.18;;;4.97;;
6547;SDS011;3307;52.416;16.862;2023-02-01T15:25:21;6.75;;;4.07;;
6547;SDS011;3307;52.416;16.862;2023-02-01T15:27:48;8.95;;;5.03;;
6547;SDS011;3307;52.416;16.862;2023-02-01T15:30:25;7.30;;;4.00;;
6547;SDS011;3307;52.416;16.862;2023-02-01T15:46:10;11.95;;;5.63;;
6547;SDS011;3307;52.416;16.862;2023-02-01T15:48:39;10.70;;;6.15;;
6547;SDS011;3307;52.416;16.862;2023-02-01T15:51:11;9.45;;;5.50;;
6547;SDS011;3307;52.416;16.862;2023-02-01T15:53:38;9.95;;;5.85;;
6547;SDS011;3307;52.416;16.862;2023-02-01T15:56:09;8.55;;;4.05;;
6547;SDS011;3307;52.416;16.862;2023-02-01T15:58:35;10.87;;;4.50;;
6547;SDS011;3307;52.416;16.862;2023-02-01T16:01:04;5.87;;;3.93;;
6547;SDS011;3307;52.416;16.862;2023-02-01T16:03:42;4.60;;;3.30;;
6547;SDS011;3307;52.416;16.862;2023-02-01T16:06:10;8.68;;;5.10;;
6547;SDS011;3307;52.416;16.862;2023-02-01T16:08:37;10.63;;;4.85;;
6547;SDS011;3307;52.416;16.862;2023-02-01T16:13:32;7.25;;;4.25;;
6547;SDS011;3307;52.416;16.862;2023-02-01T16:15:57;10.30;;;5.10;;
6547;SDS011;3307;52.416;16.862;2023-02-01T16:18:23;6.20;;;3.93;;
6547;SDS011;3307;52.416;16.862;2023-02-01T16:20:48;9.70;;;4.93;;
6547;SDS011;3307;52.416;16.862;2023-02-01T16:23:13;9.57;;;5.40;;
6547;SDS011;3307;52.416;16.862;2023-02-01T16:25:39;8.93;;;5.10;;
6547;SDS011;3307;52.416;16.862;2023-02-01T16:28:05;12.07;;;6.57;;
6547;SDS011;3307;52.416;16.862;2023-02-01T16:30:31;9.63;;;4.97;;
6547;SDS011;3307;52.416;16.862;2023-02-01T16:32:57;7.28;;;6.03;;
6547;SDS011;3307;52.416;16.862;2023-02-01T16:35:25;8.98;;;6.80;;
6547;SDS011;3307;52.416;16.862;2023-02-01T16:37:53;9.15;;;5.75;;
6547;SDS011;3307;52.416;16.862;2023-02-01T16:40:19;11.50;;;6.70;;
6547;SDS011;3307;52.416;16.862;2023-02-01T16:42:47;11.35;;;7.38;;
6547;SDS011;3307;52.416;16.862;2023-02-01T16:45:15;9.15;;;5.97;;
6547;SDS011;3307;52.416;16.862;2023-02-01T16:47:41;11.90;;;7.47;;
6547;SDS011;3307;52.416;16.862;2023-02-01T16:50:20;12.98;;;8.38;;
6547;SDS011;3307;52.416;16.862;2023-02-01T16:52:47;13.43;;;7.30;;
6547;SDS011;3307;52.416;16.862;2023-02-01T16:55:14;12.97;;;7.13;;
6547;SDS011;3307;52.416;16.862;2023-02-01T16:57:40;8.30;;;6.03;;
6547;SDS011;3307;52.416;16.862;2023-02-01T17:00:07;10.63;;;7.38;;
6547;SDS011;3307;52.416;16.862;2023-02-01T17:02:33;12.00;;;7.50;;
6547;SDS011;3307;52.416;16.862;2023-02-01T17:04:59;14.47;;;8.20;;
6547;SDS011;3307;52.416;16.862;2023-02-01T17:07:24;12.10;;;6.87;;
6547;SDS011;3307;52.416;16.862;2023-02-01T17:09:51;10.90;;;6.45;;
6547;SDS011;3307;52.416;16.862;2023-02-01T17:12:30;9.93;;;6.70;;
6547;SDS011;3307;52.416;16.862;2023-02-01T17:14:57;10.07;;;6.50;;
6547;SDS011;3307;52.416;16.862;2023-02-01T17:17:23;10.30;;;6.80;;
6547;SDS011;3307;52.416;16.862;2023-02-01T17:19:57;14.05;;;5.00;;
6547;SDS011;3307;52.416;16.862;2023-02-01T17:22:23;9.20;;;6.40;;
6547;SDS011;3307;52.416;16.862;2023-02-01T17:24:48;5.80;;;3.50;;
6547;SDS011;3307;52.416;16.862;2023-02-01T17:27:17;11.75;;;6.95;;
6547;SDS011;3307;52.416;16.862;2023-02-01T17:29:43;6.88;;;4.78;;
6547;SDS011;3307;52.416;16.862;2023-02-01T17:32:18;14.23;;;5.60;;
6547;SDS011;3307;52.416;16.862;2023-02-01T17:34:45;7.28;;;4.63;;
6547;SDS011;3307;52.416;16.862;2023-02-01T17:37:15;7.63;;;3.67;;
6547;SDS011;3307;52.416;16.862;2023-02-01T17:39:47;11.95;;;6.88;;
6547;SDS011;3307;52.416;16.862;2023-02-01T17:42:25;6.22;;;3.75;;
6547;SDS011;3307;52.416;16.862;2023-02-01T17:44:54;10.57;;;5.38;;
6547;SDS011;3307;52.416;16.862;2023-02-01T17:47:21;9.45;;;5.32;;
6547;SDS011;3307;52.416;16.862;2023-02-01T17:49:46;10.37;;;6.77;;
6547;SDS011;3307;52.416;16.862;2023-02-01T17:52:16;11.93;;;5.35;;
6547;SDS011;3307;52.416;16.862;2023-02-01T17:54:42;9.70;;;7.13;;
6547;SDS011;3307;52.416;16.862;2023-02-01T17:57:12;5.45;;;4.40;;
6547;SDS011;3307;52.416;16.862;2023-02-01T17:59:38;13.57;;;8.00;;